createdAt,value
2023-04-04T00:00:20.485Z,-0.39
2023-04-04T00:01:20.492Z,-0.37
2023-04-04T00:02:20.517Z,-0.41
2023-04-04T00:03:20.569Z,-0.47
2023-04-04T00:04:20.599Z,-0.45
2023-04-04T00:05:20.439Z,-0.47
2023-04-04T00:06:20.425Z,-0.44
2023-04-04T00:07:20.410Z,-0.53
2023-04-04T00:08:20.396Z,-0.56
2023-04-04T00:09:20.388Z,-0.65
2023-04-04T00:10:20.379Z,-0.80
2023-04-04T00:11:20.369Z,-0.85
2023-04-04T00:12:20.353Z,-0.95
2023-04-04T00:13:20.348Z,-0.96
2023-04-04T00:14:20.330Z,-0.99
2023-04-04T00:15:20.320Z,-0.92
2023-04-04T00:16:20.342Z,-0.90
2023-04-04T00:17:20.298Z,-0.80
2023-04-04T00:18:20.307Z,-0.83
2023-04-04T00:19:20.277Z,-0.80
2023-04-04T00:20:20.262Z,-0.81
2023-04-04T00:21:20.254Z,-0.78
2023-04-04T00:22:20.241Z,-0.80
2023-04-04T00:23:20.240Z,-0.81
2023-04-04T00:24:20.217Z,-0.85
2023-04-04T00:25:20.236Z,-0.86
2023-04-04T00:26:20.200Z,-0.90
2023-04-04T00:27:20.188Z,-0.92
2023-04-04T00:28:20.176Z,-0.81
2023-04-04T00:29:20.171Z,-0.77
2023-04-04T00:30:20.157Z,-0.71
2023-04-04T00:31:20.192Z,-0.63
2023-04-04T00:32:20.185Z,-0.58
2023-04-04T00:33:20.149Z,-0.58
2023-04-04T00:34:20.148Z,-0.60
2023-04-04T00:35:20.105Z,-0.58
2023-04-04T00:36:20.093Z,-0.63
2023-04-04T00:37:20.092Z,-0.67
2023-04-04T00:38:20.070Z,-0.65
2023-04-04T00:39:20.061Z,-0.67
2023-04-04T00:40:20.047Z,-0.71
2023-04-04T00:41:20.038Z,-0.74
2023-04-04T00:42:20.047Z,-0.74
2023-04-04T00:43:20.015Z,-0.74
2023-04-04T00:44:20.005Z,-0.76
2023-04-04T00:45:19.993Z,-0.83
2023-04-04T00:46:19.986Z,-0.85
2023-04-04T00:47:19.970Z,-0.92
2023-04-04T00:48:19.958Z,-0.89
2023-04-04T00:49:19.948Z,-0.99
2023-04-04T00:50:19.987Z,-1.00
2023-04-04T00:51:19.926Z,-1.08
2023-04-04T00:52:19.910Z,-1.14
2023-04-04T00:53:19.913Z,-1.20
2023-04-04T00:54:19.890Z,-1.23
2023-04-04T00:55:19.879Z,-1.21
2023-04-04T00:56:19.869Z,-1.20
2023-04-04T00:57:19.871Z,-1.20
2023-04-04T00:58:19.847Z,-1.21
2023-04-04T00:59:19.904Z,-1.20
2023-04-04T01:00:19.828Z,-1.20
2023-04-04T01:01:19.825Z,-1.21
2023-04-04T01:02:19.802Z,-1.25
2023-04-04T01:03:19.794Z,-1.18
2023-04-04T01:04:19.810Z,-1.15
2023-04-04T01:05:19.773Z,-1.13
2023-04-04T01:06:19.781Z,-1.15
2023-04-04T01:07:19.744Z,-1.15
2023-04-04T01:08:19.731Z,-1.20
2023-04-04T01:09:19.724Z,-1.17
2023-04-04T01:10:19.714Z,-1.15
2023-04-04T01:11:19.710Z,-1.17
2023-04-04T01:12:19.693Z,-1.17
2023-04-04T01:13:19.687Z,-1.17
2023-04-04T01:14:19.662Z,-1.21
2023-04-04T01:15:19.663Z,-1.31
2023-04-04T01:16:19.693Z,-1.28
2023-04-04T01:17:19.640Z,-1.25
2023-04-04T01:18:19.618Z,-1.15
2023-04-04T01:19:19.609Z,-1.13
2023-04-04T01:20:19.597Z,-1.13
2023-04-04T01:21:19.590Z,-1.14
2023-04-04T01:22:19.599Z,-1.13
2023-04-04T01:23:19.577Z,-1.13
2023-04-04T01:24:19.550Z,-1.10
2023-04-04T01:25:19.565Z,-1.13
2023-04-04T01:26:19.542Z,-1.15
2023-04-04T01:27:19.519Z,-1.20
2023-04-04T01:28:19.509Z,-1.20
2023-04-04T01:29:19.510Z,-1.18
2023-04-04T01:30:19.484Z,-1.26
2023-04-04T01:31:19.608Z,-1.31
2023-04-04T01:32:19.462Z,-1.29
2023-04-04T01:33:19.458Z,-1.25
2023-04-04T01:34:19.453Z,-1.32
2023-04-04T01:35:19.430Z,-1.32
2023-04-04T01:36:19.441Z,-1.33
2023-04-04T01:37:19.415Z,-1.33
2023-04-04T01:38:19.421Z,-1.31
2023-04-04T01:39:19.392Z,-1.36
2023-04-04T01:40:19.377Z,-1.44
2023-04-04T01:41:19.365Z,-1.49
2023-04-04T01:42:19.355Z,-1.53
2023-04-04T01:43:19.343Z,-1.50
2023-04-04T01:44:19.337Z,-1.51
2023-04-04T01:45:19.322Z,-1.51
2023-04-04T01:46:19.368Z,-1.51
2023-04-04T01:47:19.298Z,-1.57
2023-04-04T01:48:19.289Z,-1.51
2023-04-04T01:49:19.283Z,-1.47
2023-04-04T01:50:19.266Z,-1.47
2023-04-04T01:51:19.262Z,-1.47
2023-04-04T01:52:19.242Z,-1.43
2023-04-04T01:53:19.233Z,-1.33
2023-04-04T01:54:19.249Z,-1.18
2023-04-04T01:55:19.210Z,-1.03
2023-04-04T01:56:19.206Z,-0.95
2023-04-04T01:57:19.191Z,-0.96
2023-04-04T01:58:19.180Z,-0.97
2023-04-04T01:59:19.180Z,-0.81
2023-04-04T02:00:19.174Z,-0.78
2023-04-04T02:01:19.211Z,-0.83
2023-04-04T02:02:19.134Z,-0.83
2023-04-04T02:03:19.123Z,-0.86
2023-04-04T02:04:19.154Z,-0.92
2023-04-04T02:05:19.102Z,-0.92
2023-04-04T02:06:19.086Z,-1.03
2023-04-04T02:07:19.077Z,-1.11
2023-04-04T02:08:19.062Z,-1.11
2023-04-04T02:09:19.054Z,-1.11
2023-04-04T02:10:19.070Z,-1.14
2023-04-04T02:11:19.028Z,-1.13
2023-04-04T02:12:19.026Z,-1.17
2023-04-04T02:13:19.011Z,-1.20
2023-04-04T02:14:18.996Z,-1.20
2023-04-04T02:15:18.986Z,-1.28
2023-04-04T02:16:19.071Z,-1.14
2023-04-04T02:17:18.963Z,-1.11
2023-04-04T02:18:18.957Z,-1.15
2023-04-04T02:19:18.957Z,-1.13
2023-04-04T02:20:18.948Z,-1.18
2023-04-04T02:21:18.946Z,-1.20
2023-04-04T02:22:18.944Z,-1.21
2023-04-04T02:23:18.924Z,-1.23
2023-04-04T02:24:18.883Z,-1.23
2023-04-04T02:25:18.876Z,-1.29
2023-04-04T02:26:18.880Z,-1.31
2023-04-04T02:27:18.849Z,-1.29
2023-04-04T02:28:18.835Z,-1.31
2023-04-04T02:29:18.826Z,-1.36
2023-04-04T02:30:18.814Z,-1.38
2023-04-04T02:31:18.855Z,-1.36
2023-04-04T02:32:18.793Z,-1.38
2023-04-04T02:33:18.786Z,-1.47
2023-04-04T02:34:18.769Z,-1.47
2023-04-04T02:35:18.764Z,-1.49
2023-04-04T02:36:18.788Z,-1.49
2023-04-04T02:37:18.740Z,-1.44
2023-04-04T02:38:18.734Z,-1.43
2023-04-04T02:39:18.716Z,-1.44
2023-04-04T02:40:18.714Z,-1.43
2023-04-04T02:41:18.700Z,-1.44
2023-04-04T02:42:18.707Z,-1.49
2023-04-04T02:43:18.677Z,-1.50
2023-04-04T02:44:18.669Z,-1.54
2023-04-04T02:45:18.653Z,-1.59
2023-04-04T02:46:21.655Z,-1.59
2023-04-04T02:47:18.636Z,-1.61
2023-04-04T02:48:18.619Z,-1.59
2023-04-04T02:49:18.610Z,-1.67
2023-04-04T02:50:18.599Z,-1.71
2023-04-04T02:51:18.584Z,-1.71
2023-04-04T02:52:18.570Z,-1.65
2023-04-04T02:53:18.562Z,-1.54
2023-04-04T02:54:18.641Z,-1.56
2023-04-04T02:55:18.539Z,-1.64
2023-04-04T02:56:18.530Z,-1.64
2023-04-04T02:57:18.516Z,-1.72
2023-04-04T02:58:18.540Z,-1.77
2023-04-04T02:59:18.549Z,-1.78
2023-04-04T03:00:18.482Z,-1.75
2023-04-04T03:01:18.562Z,-1.77
2023-04-04T03:02:18.630Z,-1.72
2023-04-04T03:03:18.680Z,-1.78
2023-04-04T03:04:18.461Z,-1.85
2023-04-04T03:05:18.429Z,-1.92
2023-04-04T03:06:18.430Z,-1.92
2023-04-04T03:07:18.407Z,-1.90
2023-04-04T03:08:18.394Z,-1.92
2023-04-04T03:09:18.386Z,-1.88
2023-04-04T03:10:18.373Z,-1.82
2023-04-04T03:11:18.361Z,-1.74
2023-04-04T03:12:18.352Z,-1.77
2023-04-04T03:13:18.344Z,-1.75
2023-04-04T03:14:18.353Z,-1.77
2023-04-04T03:15:18.323Z,-1.71
2023-04-04T03:16:18.338Z,-1.75
2023-04-04T03:17:18.327Z,-1.68
2023-04-04T03:18:18.289Z,-1.67
2023-04-04T03:19:18.273Z,-1.65
2023-04-04T03:20:18.263Z,-1.64
2023-04-04T03:21:18.250Z,-1.65
2023-04-04T03:22:18.240Z,-1.61
2023-04-04T03:23:18.237Z,-1.62
2023-04-04T03:24:18.216Z,-1.59
2023-04-04T03:25:18.206Z,-1.57
2023-04-04T03:26:18.198Z,-1.53
2023-04-04T03:27:18.181Z,-1.53
2023-04-04T03:28:18.180Z,-1.50
2023-04-04T03:29:18.160Z,-1.51
2023-04-04T03:30:18.181Z,-1.54
2023-04-04T03:31:18.135Z,-1.61
2023-04-04T03:32:18.141Z,-1.64
2023-04-04T03:33:18.114Z,-1.70
2023-04-04T03:34:18.105Z,-1.70
2023-04-04T03:35:18.113Z,-1.70
2023-04-04T03:36:18.091Z,-1.70
2023-04-04T03:37:18.071Z,-1.74
2023-04-04T03:38:18.060Z,-1.74
2023-04-04T03:39:18.055Z,-1.74
2023-04-04T03:40:18.037Z,-1.74
2023-04-04T03:41:18.025Z,-1.75
2023-04-04T03:42:18.018Z,-1.85
2023-04-04T03:43:18.010Z,-1.82
2023-04-04T03:44:17.994Z,-1.80
2023-04-04T03:45:17.977Z,-1.78
2023-04-04T03:46:18.057Z,-1.80
2023-04-04T03:47:18.026Z,-1.92
2023-04-04T03:48:17.964Z,-1.92
2023-04-04T03:49:17.941Z,-1.92
2023-04-04T03:50:17.932Z,-1.90
2023-04-04T03:51:17.912Z,-1.90
2023-04-04T03:52:17.903Z,-1.93
2023-04-04T03:53:17.889Z,-1.95
2023-04-04T03:54:17.886Z,-2.03
2023-04-04T03:55:17.867Z,-2.04
2023-04-04T03:56:17.860Z,-2.07
2023-04-04T03:57:17.854Z,-2.04
2023-04-04T03:58:17.832Z,-1.96
2023-04-04T03:59:17.860Z,-1.98
2023-04-04T04:00:17.811Z,-1.95
2023-04-04T04:01:17.826Z,-1.92
2023-04-04T04:02:17.837Z,-1.93
2023-04-04T04:03:17.879Z,-1.90
2023-04-04T04:04:17.780Z,-1.86
2023-04-04T04:05:17.758Z,-1.85
2023-04-04T04:06:17.740Z,-1.85
2023-04-04T04:07:17.730Z,-1.85
2023-04-04T04:08:17.723Z,-1.86
2023-04-04T04:09:17.712Z,-1.85
2023-04-04T04:10:17.695Z,-1.80
2023-04-04T04:11:17.688Z,-1.78
2023-04-04T04:12:17.676Z,-1.75
2023-04-04T04:13:17.662Z,-1.74
2023-04-04T04:14:17.650Z,-1.68
2023-04-04T04:15:17.639Z,-1.68
2023-04-04T04:16:17.696Z,-1.70
2023-04-04T04:17:17.615Z,-1.70
2023-04-04T04:18:17.631Z,-1.67
2023-04-04T04:19:17.592Z,-1.62
2023-04-04T04:20:17.594Z,-1.59
2023-04-04T04:21:17.572Z,-1.56
2023-04-04T04:22:17.561Z,-1.51
2023-04-04T04:23:17.553Z,-1.51
2023-04-04T04:24:17.537Z,-1.47
2023-04-04T04:25:17.525Z,-1.41
2023-04-04T04:26:17.524Z,-1.39
2023-04-04T04:27:17.510Z,-1.36
2023-04-04T04:28:17.497Z,-1.36
2023-04-04T04:29:17.480Z,-1.41
2023-04-04T04:30:17.471Z,-1.41
2023-04-04T04:31:17.476Z,-1.46
2023-04-04T04:32:17.453Z,-1.47
2023-04-04T04:33:17.439Z,-1.49
2023-04-04T04:34:17.457Z,-1.56
2023-04-04T04:35:17.418Z,-1.61
2023-04-04T04:36:17.444Z,-1.64
2023-04-04T04:37:17.407Z,-1.67
2023-04-04T04:38:17.386Z,-1.65
2023-04-04T04:39:17.375Z,-1.65
2023-04-04T04:40:17.362Z,-1.64
2023-04-04T04:41:17.351Z,-1.59
2023-04-04T04:42:17.343Z,-1.54
2023-04-04T04:43:17.333Z,-1.56
2023-04-04T04:44:17.321Z,-1.56
2023-04-04T04:45:17.326Z,-1.54
2023-04-04T04:46:17.330Z,-1.54
2023-04-04T04:47:17.284Z,-1.49
2023-04-04T04:48:17.275Z,-1.44
2023-04-04T04:49:17.338Z,-1.46
2023-04-04T04:50:17.376Z,-1.49
2023-04-04T04:51:17.243Z,-1.51
2023-04-04T04:52:17.231Z,-1.53
2023-04-04T04:53:17.222Z,-1.61
2023-04-04T04:54:17.209Z,-1.57
2023-04-04T04:55:17.206Z,-1.57
2023-04-04T04:56:17.186Z,-1.57
2023-04-04T04:57:17.173Z,-1.62
2023-04-04T04:58:17.165Z,-1.65
2023-04-04T04:59:17.167Z,-1.67
2023-04-04T05:00:17.145Z,-1.71
2023-04-04T05:01:17.236Z,-1.68
2023-04-04T05:02:17.138Z,-1.68
2023-04-04T05:03:17.122Z,-1.71
2023-04-04T05:04:17.098Z,-1.74
2023-04-04T05:05:17.086Z,-1.83
2023-04-04T05:06:17.151Z,-1.85
2023-04-04T05:07:17.065Z,-1.89
2023-04-04T05:08:17.048Z,-1.86
2023-04-04T05:09:17.038Z,-1.86
2023-04-04T05:10:17.031Z,-1.93
2023-04-04T05:11:17.023Z,-1.96
2023-04-04T05:12:17.006Z,-1.92
2023-04-04T05:13:16.992Z,-1.95
2023-04-04T05:14:16.986Z,-2.01
2023-04-04T05:15:16.972Z,-2.00
2023-04-04T05:16:16.975Z,-2.01
2023-04-04T05:17:16.955Z,-1.93
2023-04-04T05:18:16.941Z,-1.78
2023-04-04T05:19:16.951Z,-1.72
2023-04-04T05:20:16.919Z,-1.68
2023-04-04T05:21:16.903Z,-1.68
2023-04-04T05:22:16.919Z,-1.64
2023-04-04T05:23:16.884Z,-1.70
2023-04-04T05:24:16.869Z,-1.72
2023-04-04T05:25:16.863Z,-1.71
2023-04-04T05:26:16.851Z,-1.71
2023-04-04T05:27:16.841Z,-1.71
2023-04-04T05:28:16.827Z,-1.67
2023-04-04T05:29:16.815Z,-1.68
2023-04-04T05:30:16.837Z,-1.64
2023-04-04T05:31:16.791Z,-1.59
2023-04-04T05:32:16.783Z,-1.57
2023-04-04T05:33:16.773Z,-1.56
2023-04-04T05:34:16.785Z,-1.44
2023-04-04T05:35:16.765Z,-1.35
2023-04-04T05:36:16.759Z,-1.32
2023-04-04T05:37:16.725Z,-1.20
2023-04-04T05:38:16.754Z,-1.14
2023-04-04T05:39:16.713Z,-1.07
2023-04-04T05:40:16.705Z,-1.00
2023-04-04T05:41:16.686Z,-0.93
2023-04-04T05:42:16.676Z,-0.89
2023-04-04T05:43:16.676Z,-0.78
2023-04-04T05:44:16.660Z,-0.71
2023-04-04T05:45:16.657Z,-0.63
2023-04-04T05:46:16.683Z,-0.53
2023-04-04T05:47:16.623Z,-0.49
2023-04-04T05:48:16.606Z,-0.39
2023-04-04T05:49:16.600Z,-0.32
2023-04-04T05:50:16.592Z,-0.23
2023-04-04T05:51:16.575Z,-0.14
2023-04-04T05:52:16.563Z,-0.06
2023-04-04T05:53:16.549Z,0.01
2023-04-04T05:54:16.570Z,0.05
2023-04-04T05:55:16.526Z,0.15
2023-04-04T05:56:16.519Z,0.22
2023-04-04T05:57:16.509Z,0.30
2023-04-04T05:58:16.502Z,0.35
2023-04-04T05:59:16.565Z,0.41
2023-04-04T06:00:16.474Z,0.53
2023-04-04T06:01:16.461Z,0.57
2023-04-04T06:02:16.506Z,0.63
2023-04-04T06:03:17.104Z,0.70
2023-04-04T06:04:16.432Z,0.72
2023-04-04T06:05:16.418Z,0.75
2023-04-04T06:06:16.477Z,0.77
2023-04-04T06:07:16.405Z,0.88
2023-04-04T06:08:16.388Z,0.99
2023-04-04T06:09:16.463Z,1.08
2023-04-04T06:10:16.386Z,1.17
2023-04-04T06:11:16.352Z,1.26
2023-04-04T06:12:16.340Z,1.36
2023-04-04T06:13:16.329Z,1.52
2023-04-04T06:14:16.322Z,1.68
2023-04-04T06:15:16.315Z,1.82
2023-04-04T06:16:16.362Z,2.00
2023-04-04T06:17:16.285Z,2.14
2023-04-04T06:18:16.273Z,2.29
2023-04-04T06:19:16.338Z,2.48
2023-04-04T06:20:16.272Z,2.65
2023-04-04T06:21:16.245Z,2.83
2023-04-04T06:22:16.227Z,2.97
2023-04-04T06:23:16.216Z,3.12
2023-04-04T06:24:16.226Z,3.20
2023-04-04T06:25:16.198Z,3.23
2023-04-04T06:26:16.207Z,3.30
2023-04-04T06:27:16.177Z,3.44
2023-04-04T06:28:16.163Z,3.60
2023-04-04T06:29:16.150Z,3.77
2023-04-04T06:30:16.139Z,3.95
2023-04-04T06:31:16.143Z,4.14
2023-04-04T06:32:16.117Z,4.32
2023-04-04T06:33:16.109Z,4.47
2023-04-04T06:34:16.098Z,4.42
2023-04-04T06:35:18.138Z,4.46
2023-04-04T06:36:16.120Z,4.49
2023-04-04T06:37:16.057Z,4.51
2023-04-04T06:38:16.057Z,4.56
2023-04-04T06:39:16.038Z,4.54
2023-04-04T06:40:16.050Z,4.53
2023-04-04T06:41:16.014Z,4.50
2023-04-04T06:42:16.025Z,4.51
2023-04-04T06:43:15.992Z,4.56
2023-04-04T06:44:15.988Z,4.67
2023-04-04T06:45:15.972Z,4.80
2023-04-04T06:46:16.027Z,4.96
2023-04-04T06:47:15.961Z,5.12
2023-04-04T06:48:15.935Z,5.22
2023-04-04T06:49:15.925Z,5.32
2023-04-04T06:50:15.923Z,5.27
2023-04-04T06:51:15.899Z,5.35
2023-04-04T06:52:15.893Z,5.35
2023-04-04T06:53:15.877Z,5.52
2023-04-04T06:54:15.870Z,5.59
2023-04-04T06:55:15.854Z,5.78
2023-04-04T06:56:15.850Z,5.92
2023-04-04T06:57:15.845Z,5.90
2023-04-04T06:58:15.857Z,5.77
2023-04-04T06:59:15.868Z,5.90
2023-04-04T07:00:15.801Z,5.93
2023-04-04T07:01:15.820Z,6.17
2023-04-04T07:02:15.808Z,6.43
2023-04-04T07:03:15.811Z,6.76
2023-04-04T07:04:15.758Z,6.96
2023-04-04T07:05:15.743Z,6.68
2023-04-04T07:06:15.834Z,6.57
2023-04-04T07:07:15.729Z,6.76
2023-04-04T07:08:15.713Z,6.94
2023-04-04T07:09:28.006Z,6.93
2023-04-04T07:10:15.710Z,7.11
2023-04-04T07:11:15.693Z,7.16
2023-04-04T07:12:15.668Z,7.26
2023-04-04T07:13:15.663Z,7.30
2023-04-04T07:14:15.673Z,7.37
2023-04-04T07:15:15.644Z,7.44
2023-04-04T07:16:15.687Z,7.47
2023-04-04T07:17:24.244Z,7.60
2023-04-04T07:18:15.605Z,7.44
2023-04-04T07:19:15.589Z,7.41
2023-04-04T07:20:15.580Z,7.67
2023-04-04T07:21:15.564Z,7.79
2023-04-04T07:22:15.557Z,7.89
2023-04-04T07:23:15.550Z,7.99
2023-04-04T07:24:15.534Z,8.12
2023-04-04T07:25:15.530Z,8.12
2023-04-04T07:26:15.515Z,8.14
2023-04-04T07:27:15.532Z,8.22
2023-04-04T07:28:15.490Z,8.21
2023-04-04T07:29:15.476Z,8.18
2023-04-04T07:30:15.537Z,8.42
2023-04-04T07:31:15.461Z,8.71
2023-04-04T07:32:15.446Z,8.97
2023-04-04T07:33:15.431Z,9.08
2023-04-04T07:34:15.423Z,9.15
2023-04-04T07:35:15.415Z,9.10
2023-04-04T07:36:15.445Z,9.27
2023-04-04T07:37:15.385Z,9.56
2023-04-04T07:38:15.381Z,9.59
2023-04-04T07:39:15.365Z,9.67
2023-04-04T07:40:15.349Z,9.49
2023-04-04T07:41:15.338Z,9.58
2023-04-04T07:42:15.330Z,9.78
2023-04-04T07:43:15.323Z,9.81
2023-04-04T07:44:15.302Z,9.74
2023-04-04T07:45:15.294Z,9.19
2023-04-04T07:46:15.316Z,8.86
2023-04-04T07:47:15.274Z,8.93
2023-04-04T07:48:15.256Z,8.89
2023-04-04T07:49:15.250Z,8.73
2023-04-04T07:50:15.231Z,8.47
2023-04-04T07:51:15.226Z,8.75
2023-04-04T07:52:15.216Z,8.85
2023-04-04T07:53:15.201Z,8.78
2023-04-04T07:54:15.190Z,8.88
2023-04-04T07:55:16.754Z,8.58
2023-04-04T07:56:15.174Z,8.70
2023-04-04T07:57:15.156Z,8.82
2023-04-04T07:58:15.147Z,8.82
2023-04-04T07:59:15.185Z,9.06
2023-04-04T08:00:15.116Z,9.31
2023-04-04T08:01:15.113Z,9.55
2023-04-04T08:02:15.160Z,9.30
2023-04-04T08:03:15.197Z,9.35
2023-04-04T08:04:15.117Z,9.56
2023-04-04T08:05:15.069Z,9.92
2023-04-04T08:06:15.050Z,10.32
2023-04-04T08:07:15.042Z,10.55
2023-04-04T08:08:15.028Z,10.70
2023-04-04T08:09:15.033Z,10.88
2023-04-04T08:10:15.008Z,10.69
2023-04-04T08:11:14.994Z,10.14
2023-04-04T08:12:14.982Z,9.60
2023-04-04T08:13:14.984Z,9.50
2023-04-04T08:14:14.960Z,9.49
2023-04-04T08:15:14.951Z,9.40
2023-04-04T08:16:14.974Z,9.74
2023-04-04T08:17:14.928Z,10.09
2023-04-04T08:18:14.954Z,9.99
2023-04-04T08:19:14.910Z,10.28
2023-04-04T08:20:14.900Z,10.58
2023-04-04T08:21:14.885Z,11.02
2023-04-04T08:22:14.873Z,11.24
2023-04-04T08:23:14.862Z,11.17
2023-04-04T08:24:14.862Z,11.42
2023-04-04T08:25:14.841Z,11.36
2023-04-04T08:26:14.824Z,11.03
2023-04-04T08:27:14.853Z,11.11
2023-04-04T08:28:14.880Z,10.94
2023-04-04T08:29:14.795Z,11.19
2023-04-04T08:30:14.784Z,11.45
2023-04-04T08:31:14.806Z,11.70
2023-04-04T08:32:14.766Z,11.74
2023-04-04T08:33:14.845Z,11.98
2023-04-04T08:34:14.759Z,11.94
2023-04-04T08:35:14.729Z,11.85
2023-04-04T08:36:14.726Z,11.64
2023-04-04T08:37:14.708Z,11.64
2023-04-04T08:38:14.694Z,12.01
2023-04-04T08:39:14.699Z,12.31
2023-04-04T08:40:14.674Z,12.48
2023-04-04T08:41:14.672Z,12.67
2023-04-04T08:42:14.647Z,12.34
2023-04-04T08:43:14.637Z,12.07
2023-04-04T08:44:14.623Z,11.81
2023-04-04T08:45:14.615Z,11.82
2023-04-04T08:46:14.652Z,11.79
2023-04-04T08:47:14.606Z,12.01
2023-04-04T08:48:14.586Z,11.93
2023-04-04T08:49:14.575Z,11.77
2023-04-04T08:50:14.591Z,11.94
2023-04-04T08:51:14.555Z,12.08
2023-04-04T08:52:14.544Z,12.33
2023-04-04T08:53:14.533Z,12.31
2023-04-04T08:54:14.524Z,12.33
2023-04-04T08:55:14.518Z,12.23
2023-04-04T08:56:14.505Z,12.73
2023-04-04T08:57:14.489Z,12.99
2023-04-04T08:58:14.480Z,13.25
2023-04-04T08:59:14.512Z,13.10
2023-04-04T09:00:14.704Z,12.41
2023-04-04T09:01:14.513Z,11.78
2023-04-04T09:02:14.456Z,11.54
2023-04-04T09:03:14.477Z,11.53
2023-04-04T09:04:14.430Z,11.56
2023-04-04T09:05:14.405Z,11.79
2023-04-04T09:06:14.413Z,11.57
2023-04-04T09:07:14.388Z,11.44
2023-04-04T09:08:14.368Z,11.36
2023-04-04T09:09:14.359Z,11.62
2023-04-04T09:10:14.347Z,11.39
2023-04-04T09:11:14.339Z,11.48
2023-04-04T09:12:14.324Z,11.78
2023-04-04T09:13:16.702Z,11.98
2023-04-04T09:14:14.302Z,11.54
2023-04-04T09:15:14.293Z,11.57
2023-04-04T09:16:14.304Z,11.67
2023-04-04T09:17:14.272Z,11.79
2023-04-04T09:18:14.262Z,11.46
2023-04-04T09:19:14.251Z,11.39
2023-04-04T09:20:14.236Z,11.75
2023-04-04T09:21:14.224Z,12.15
2023-04-04T09:22:14.631Z,11.59
2023-04-04T09:23:14.203Z,11.27
2023-04-04T09:24:14.195Z,11.54
2023-04-04T09:25:14.195Z,11.90
2023-04-04T09:26:14.164Z,12.69
2023-04-04T09:27:14.157Z,13.13
2023-04-04T09:28:14.171Z,13.46
2023-04-04T09:29:14.133Z,13.84
2023-04-04T09:30:14.128Z,13.84
2023-04-04T09:31:14.113Z,14.08
2023-04-04T09:32:14.190Z,14.19
2023-04-04T09:33:14.086Z,13.94
2023-04-04T09:34:14.074Z,13.94
2023-04-04T09:35:14.095Z,13.68
2023-04-04T09:36:14.090Z,13.71
2023-04-04T09:37:14.045Z,13.83
2023-04-04T09:38:14.053Z,13.93
2023-04-04T09:39:14.020Z,14.08
2023-04-04T09:40:14.012Z,14.24
2023-04-04T09:41:14.015Z,13.57
2023-04-04T09:42:13.986Z,13.35
2023-04-04T09:43:13.980Z,13.14
2023-04-04T09:44:13.982Z,12.91
2023-04-04T09:45:19.540Z,12.70
2023-04-04T09:46:15.041Z,12.91
2023-04-04T09:47:21.053Z,13.29
2023-04-04T09:48:14.961Z,13.69
2023-04-04T09:49:13.925Z,13.93
2023-04-04T09:50:13.902Z,13.94
2023-04-04T09:51:13.890Z,13.86
2023-04-04T09:52:13.877Z,13.87
2023-04-04T09:53:13.865Z,13.88
2023-04-04T09:54:26.147Z,13.86
2023-04-04T09:55:14.871Z,14.44
2023-04-04T09:56:13.829Z,14.44
2023-04-04T09:57:13.826Z,14.72
2023-04-04T09:58:13.813Z,15.25
2023-04-04T09:59:13.900Z,15.53
2023-04-04T10:00:13.786Z,15.18
2023-04-04T10:01:13.834Z,15.31
2023-04-04T10:02:13.765Z,15.62
2023-04-04T10:03:13.756Z,15.44
2023-04-04T10:04:13.832Z,15.48
2023-04-04T10:05:13.736Z,14.87
2023-04-04T10:06:13.733Z,14.13
2023-04-04T10:07:13.715Z,13.88
2023-04-04T10:08:13.714Z,14.01
2023-04-04T10:09:13.691Z,14.24
2023-04-04T10:10:13.705Z,14.34
2023-04-04T10:11:13.682Z,14.80
2023-04-04T10:12:13.655Z,15.09
2023-04-04T10:13:13.644Z,15.52
2023-04-04T10:14:13.634Z,15.66
2023-04-04T10:15:13.629Z,15.18
2023-04-04T10:16:13.638Z,15.04
2023-04-04T10:17:13.620Z,15.12
2023-04-04T10:18:13.657Z,15.71
2023-04-04T10:19:13.861Z,16.06
2023-04-04T10:20:13.566Z,15.16
2023-04-04T10:21:15.863Z,15.27
2023-04-04T10:22:13.547Z,15.28
2023-04-04T10:23:13.539Z,14.79
2023-04-04T10:24:13.529Z,15.31
2023-04-04T10:25:13.531Z,15.13
2023-04-04T10:26:13.579Z,14.44
2023-04-04T10:27:13.521Z,14.53
2023-04-04T10:28:13.557Z,14.91
2023-04-04T10:29:13.489Z,15.62
2023-04-04T10:30:13.482Z,15.98
2023-04-04T10:31:13.477Z,15.89
2023-04-04T10:32:13.650Z,15.99
2023-04-04T10:33:13.440Z,15.12
2023-04-04T10:34:13.422Z,15.68
2023-04-04T10:35:13.402Z,16.42
2023-04-04T10:36:13.439Z,16.66
2023-04-04T10:37:13.609Z,16.90
2023-04-04T10:38:13.370Z,16.77
2023-04-04T10:39:13.361Z,16.26
2023-04-04T10:40:13.349Z,16.73
2023-04-04T10:41:13.364Z,17.12
2023-04-04T10:42:13.439Z,17.06
2023-04-04T10:43:13.347Z,16.37
2023-04-04T10:44:13.327Z,16.85
2023-04-04T10:45:20.330Z,16.99
2023-04-04T10:46:14.429Z,17.28
2023-04-04T10:47:13.295Z,17.63
2023-04-04T10:48:13.291Z,17.79
2023-04-04T10:49:13.265Z,18.34
2023-04-04T10:50:13.236Z,18.86
2023-04-04T10:51:13.251Z,19.13
2023-04-04T10:52:13.213Z,18.50
2023-04-04T10:53:13.208Z,18.29
2023-04-04T10:54:13.200Z,17.76
2023-04-04T10:55:13.190Z,17.92
2023-04-04T10:56:13.228Z,18.17
2023-04-04T10:57:13.188Z,18.29
2023-04-04T10:58:13.169Z,18.25
2023-04-04T10:59:13.161Z,18.11
2023-04-04T11:00:13.123Z,18.20
2023-04-04T11:01:13.151Z,18.16
2023-04-04T11:02:13.113Z,17.71
2023-04-04T11:03:13.115Z,17.36
2023-04-04T11:04:13.300Z,17.05
2023-04-04T11:05:13.099Z,17.17
2023-04-04T11:06:13.065Z,16.57
2023-04-04T11:07:13.079Z,15.93
2023-04-04T11:08:13.048Z,15.78
2023-04-04T11:09:13.031Z,15.40
2023-04-04T11:10:13.018Z,15.37
2023-04-04T11:11:22.249Z,15.23
2023-04-04T11:12:14.025Z,15.48
2023-04-04T11:13:14.146Z,15.81
2023-04-04T11:14:13.306Z,16.10
2023-04-04T11:15:12.981Z,16.37
2023-04-04T11:16:12.970Z,16.69
2023-04-04T11:17:12.943Z,17.00
2023-04-04T11:18:26.964Z,17.15
2023-04-04T11:19:13.947Z,17.38
2023-04-04T11:20:12.931Z,17.62
2023-04-04T11:21:12.899Z,17.14
2023-04-04T11:22:12.884Z,17.38
2023-04-04T11:23:12.881Z,17.62
2023-04-04T11:24:12.864Z,16.85
2023-04-04T11:25:12.862Z,17.07
2023-04-04T11:26:12.844Z,16.90
2023-04-04T11:27:12.831Z,17.14
2023-04-04T11:28:12.825Z,16.66
2023-04-04T11:29:12.814Z,16.32
2023-04-04T11:30:12.839Z,16.41
2023-04-04T11:31:12.797Z,16.91
2023-04-04T11:32:12.799Z,17.21
2023-04-04T11:33:12.803Z,17.30
2023-04-04T11:34:12.750Z,17.51
2023-04-04T11:35:12.742Z,16.99
2023-04-04T11:36:12.772Z,16.98
2023-04-04T11:37:12.723Z,17.22
2023-04-04T11:38:12.708Z,16.57
2023-04-04T11:39:12.696Z,16.17
2023-04-04T11:40:12.689Z,15.93
2023-04-04T11:41:12.679Z,15.60
2023-04-04T11:42:12.690Z,14.90
2023-04-04T11:43:12.668Z,14.82
2023-04-04T11:44:12.660Z,14.57
2023-04-04T11:45:12.627Z,14.23
2023-04-04T11:46:12.680Z,13.98
2023-04-04T11:47:12.617Z,13.87
2023-04-04T11:48:12.601Z,13.83
2023-04-04T11:49:12.590Z,13.90
2023-04-04T11:50:12.688Z,14.24
2023-04-04T11:51:12.564Z,14.23
2023-04-04T11:52:12.556Z,14.66
2023-04-04T11:53:12.545Z,14.91
2023-04-04T11:54:12.527Z,14.74
2023-04-04T11:55:12.518Z,14.79
2023-04-04T11:56:12.512Z,14.78
2023-04-04T11:57:12.494Z,14.93
2023-04-04T11:58:13.349Z,14.75
2023-04-04T11:59:12.618Z,14.38
2023-04-04T12:00:12.472Z,14.53
2023-04-04T12:01:12.467Z,14.67
2023-04-04T12:02:12.528Z,14.83
2023-04-04T12:03:12.782Z,15.62
2023-04-04T12:04:12.436Z,16.27
2023-04-04T12:05:12.517Z,16.04
2023-04-04T12:06:12.460Z,15.89
2023-04-04T12:07:12.383Z,16.75
2023-04-04T12:08:12.723Z,17.15
2023-04-04T12:09:12.365Z,17.65
2023-04-04T12:10:12.353Z,17.76
2023-04-04T12:11:12.342Z,17.22
2023-04-04T12:12:12.328Z,17.60
2023-04-04T12:13:12.334Z,17.76
2023-04-04T12:14:12.312Z,18.11
2023-04-04T12:15:17.387Z,17.00
2023-04-04T12:16:12.332Z,15.71
2023-04-04T12:17:12.309Z,14.90
2023-04-04T12:18:12.328Z,14.91
2023-04-04T12:19:12.261Z,15.40
2023-04-04T12:20:12.255Z,16.17
2023-04-04T12:21:12.239Z,16.73
2023-04-04T12:22:12.234Z,16.84
2023-04-04T12:23:12.216Z,16.63
2023-04-04T12:24:12.210Z,15.98
2023-04-04T12:25:12.195Z,16.55
2023-04-04T12:26:12.193Z,17.05
2023-04-04T12:27:12.187Z,17.35
2023-04-04T12:28:12.167Z,17.60
2023-04-04T12:29:12.157Z,18.14
2023-04-04T12:30:12.134Z,18.26
2023-04-04T12:31:12.180Z,18.19
2023-04-04T12:32:12.112Z,17.55
2023-04-04T12:33:12.105Z,16.98
2023-04-04T12:34:12.224Z,16.34
2023-04-04T12:35:12.105Z,16.65
2023-04-04T12:36:12.077Z,16.27
2023-04-04T12:37:12.060Z,16.59
2023-04-04T12:38:12.040Z,16.87
2023-04-04T12:39:12.038Z,17.10
2023-04-04T12:40:12.020Z,16.32
2023-04-04T12:41:12.010Z,15.98
2023-04-04T12:42:11.999Z,15.43
2023-04-04T12:43:12.008Z,14.93
2023-04-04T12:44:11.978Z,15.52
2023-04-04T12:45:11.964Z,15.78
2023-04-04T12:46:12.020Z,15.96
2023-04-04T12:47:11.952Z,16.30
2023-04-04T12:48:11.947Z,16.98
2023-04-04T12:49:11.935Z,16.98
2023-04-04T12:50:11.941Z,17.00
2023-04-04T12:51:11.919Z,16.87
2023-04-04T12:52:11.885Z,16.90
2023-04-04T12:53:27.591Z,16.70
2023-04-04T12:54:12.893Z,16.99
2023-04-04T12:55:11.854Z,17.24
2023-04-04T12:56:11.843Z,17.49
2023-04-04T12:57:11.836Z,17.20